createdAt,value
2023-03-22T00:03:49.419Z,7.10
2023-03-22T00:08:53.755Z,7.20
2023-03-22T00:13:59.104Z,7.20
2023-03-22T00:19:02.306Z,7.20
2023-03-22T00:24:05.653Z,7.20
2023-03-22T00:29:08.884Z,7.20
2023-03-22T00:34:12.436Z,7.20
2023-03-22T00:39:16.048Z,7.20
2023-03-22T00:44:19.216Z,7.20
2023-03-22T00:49:22.317Z,7.20
2023-03-22T00:54:25.627Z,7.20
2023-03-22T00:59:28.754Z,7.20
2023-03-22T01:04:32.803Z,7.20
2023-03-22T01:09:36.052Z,7.20
2023-03-22T01:14:39.823Z,7.20
2023-03-22T01:19:43.000Z,7.20
2023-03-22T01:24:46.298Z,7.20
2023-03-22T01:29:50.146Z,7.20
2023-03-22T01:34:53.387Z,7.20
2023-03-22T01:39:57.092Z,7.10
2023-03-22T01:45:15.784Z,7.10
2023-03-22T01:50:19.982Z,7.00
2023-03-22T01:55:24.737Z,7.00
2023-03-22T02:00:28.225Z,7.00
2023-03-22T02:05:32.026Z,6.90
2023-03-22T02:10:35.285Z,6.90
2023-03-22T02:15:49.313Z,7.00
2023-03-22T02:21:44.687Z,7.00
2023-03-22T02:27:16.656Z,6.90
2023-03-22T02:32:19.761Z,7.00
2023-03-22T02:37:35.007Z,7.10
2023-03-22T02:42:59.994Z,7.10
2023-03-22T02:48:22.234Z,7.20
2023-03-22T02:53:43.247Z,7.20
2023-03-22T02:58:54.644Z,7.20
2023-03-22T03:04:02.754Z,7.30
2023-03-22T03:09:06.794Z,7.30
2023-03-22T03:14:21.616Z,7.30
2023-03-22T03:19:34.414Z,7.30
2023-03-22T03:24:46.586Z,7.40
2023-03-22T03:29:53.329Z,7.40
2023-03-22T03:35:32.856Z,7.50
2023-03-22T03:40:53.903Z,7.50
2023-03-22T03:45:57.274Z,7.50
2023-03-22T03:51:02.400Z,7.60
2023-03-22T03:56:06.137Z,7.60
2023-03-22T04:01:09.306Z,7.70
2023-03-22T04:06:12.442Z,7.60
2023-03-22T04:11:15.782Z,7.60
2023-03-22T04:16:18.931Z,7.60
2023-03-22T04:21:22.084Z,7.60
2023-03-22T04:26:26.656Z,7.60
2023-03-22T04:31:34.437Z,7.60
2023-03-22T04:36:39.936Z,7.60
2023-03-22T04:41:42.975Z,7.60
2023-03-22T04:46:46.079Z,7.50
2023-03-22T04:51:49.265Z,7.50
2023-03-22T04:56:52.463Z,7.40
2023-03-22T05:01:55.764Z,7.40
2023-03-22T05:06:58.904Z,7.50
2023-03-22T05:12:02.289Z,7.40
2023-03-22T05:17:05.478Z,7.40
2023-03-22T05:22:08.613Z,7.40
2023-03-22T05:27:11.772Z,7.40
2023-03-22T05:32:14.864Z,7.40
2023-03-22T05:37:21.528Z,7.40
2023-03-22T05:42:24.687Z,7.40
2023-03-22T05:47:27.812Z,7.50
2023-03-22T05:52:30.864Z,7.50
2023-03-22T05:57:34.301Z,7.60
2023-03-22T06:02:37.489Z,7.60
2023-03-22T06:07:41.638Z,7.60
2023-03-22T06:12:44.924Z,7.70
2023-03-22T06:17:48.403Z,7.70
2023-03-22T06:22:51.587Z,7.70
2023-03-22T06:27:54.688Z,7.80
2023-03-22T06:33:00.872Z,7.80
2023-03-22T06:38:04.279Z,7.90
2023-03-22T06:43:07.582Z,7.90
2023-03-22T06:48:10.591Z,8.00
2023-03-22T06:53:13.758Z,8.10
2023-03-22T06:58:16.883Z,8.10
2023-03-22T07:03:20.049Z,8.20
2023-03-22T07:08:23.305Z,8.30
2023-03-22T07:13:26.640Z,8.40
2023-03-22T07:18:32.078Z,8.50
2023-03-22T07:23:35.378Z,8.60
2023-03-22T07:28:39.588Z,8.70
2023-03-22T07:33:43.159Z,8.80
2023-03-22T07:38:46.199Z,8.90
2023-03-22T07:43:56.628Z,9.00
2023-03-22T07:49:03.278Z,9.10
2023-03-22T07:54:07.789Z,9.30
2023-03-22T07:59:11.478Z,9.40
2023-03-22T08:04:14.604Z,9.50
2023-03-22T08:09:18.524Z,9.60
2023-03-22T08:14:30.523Z,9.60
2023-03-22T08:19:37.195Z,9.60
2023-03-22T08:24:40.321Z,9.80
2023-03-22T08:29:43.504Z,9.80
2023-03-22T08:34:47.692Z,9.90
2023-03-22T08:39:51.015Z,9.90
2023-03-22T08:44:54.163Z,10.00
2023-03-22T08:49:57.496Z,10.00
2023-03-22T08:55:01.436Z,10.00
2023-03-22T09:00:07.140Z,10.10
2023-03-22T09:05:10.891Z,10.10
2023-03-22T09:10:14.160Z,10.10
2023-03-22T09:15:17.319Z,10.20
2023-03-22T09:20:25.557Z,10.20
2023-03-22T09:25:28.608Z,10.20
2023-03-22T09:30:32.087Z,10.20
2023-03-22T09:35:35.254Z,10.40
2023-03-22T09:40:47.088Z,10.50
2023-03-22T09:45:52.386Z,10.70
2023-03-22T09:50:56.036Z,10.90
2023-03-22T09:56:32.046Z,11.10
2023-03-22T10:01:48.131Z,11.20
2023-03-22T10:07:07.320Z,11.30
2023-03-22T10:12:28.596Z,11.40
2023-03-22T10:17:32.275Z,11.50
2023-03-22T10:22:41.354Z,11.60
2023-03-22T10:27:47.050Z,11.60
2023-03-22T10:33:01.978Z,11.60
2023-03-22T10:38:09.798Z,11.60
2023-03-22T10:43:28.000Z,11.60
2023-03-22T10:48:42.448Z,11.50
2023-03-22T10:53:49.505Z,11.50
2023-03-22T10:58:53.128Z,11.50
2023-03-22T11:04:17.150Z,11.50
2023-03-22T11:09:22.265Z,11.90
2023-03-22T11:14:35.680Z,12.40
2023-03-22T11:19:40.502Z,12.70
2023-03-22T11:24:46.988Z,12.90
2023-03-22T11:29:53.098Z,12.90
2023-03-22T11:35:05.214Z,12.90
2023-03-22T11:40:14.292Z,13.00
2023-03-22T11:45:31.421Z,13.20
2023-03-22T11:50:38.231Z,13.50
2023-03-22T11:55:43.122Z,13.60
2023-03-22T12:00:48.472Z,13.60
2023-03-22T12:05:53.025Z,13.90
2023-03-22T13:24:21.238Z,14.90
2023-03-22T13:29:50.085Z,15.00
2023-03-22T13:34:54.841Z,15.00
2023-03-22T13:40:32.208Z,14.90
2023-03-22T13:45:35.862Z,14.90
2023-03-22T13:50:40.143Z,15.00
2023-03-22T13:55:59.932Z,15.10
2023-03-22T14:01:13.589Z,15.10
2023-03-22T14:18:37.529Z,15.10
